Time;durP1;ratioP1;P1;durP2;ratioP2;P2;SDS_P1;SDS_P2;PMS_P1;PMS_P2;Temp;Humidity;BMP_temperature;BMP_pressure;BME280_temperature;BME280_humidity;BME280_pressure;Samples;Min_cycle;Max_cycle;Signal;HPM_P1;HPM_P2
2023/10/04 00:02:23;;;;;;;3.70;2.55;;;12.10;99.90;;;;;;5013387;28;20136;-46
2023/10/04 00:04:49;;;;;;;7.00;2.67;;;12.00;99.90;;;;;;5013141;28;20105;-47
2023/10/04 00:07:14;;;;;;;3.17;2.88;;;12.00;99.90;;;;;;5012831;28;20032;-47
2023/10/04 00:09:41;;;;;;;3.17;2.30;;;12.00;99.90;;;;;;5013112;28;20113;-50
2023/10/04 00:12:08;;;;;;;6.60;2.72;;;12.00;99.90;;;;;;5012838;28;20105;-46
2023/10/04 00:14:33;;;;;;;9.32;2.65;;;12.00;99.90;;;;;;5012774;28;20516;-48
2023/10/04 00:16:59;;;;;;;4.82;2.60;;;11.90;99.90;;;;;;5012796;28;20034;-46
2023/10/04 00:19:25;;;;;;;6.95;3.25;;;11.90;99.90;;;;;;5012943;28;20105;-47
2023/10/04 00:21:51;;;;;;;5.80;2.88;;;11.90;99.90;;;;;;5012815;28;20025;-47
2023/10/04 00:24:16;;;;;;;6.10;2.72;;;11.90;99.90;;;;;;5012430;28;20455;-47
2023/10/04 00:26:43;;;;;;;6.03;2.85;;;11.90;99.90;;;;;;5012636;28;20145;-48
2023/10/04 00:29:08;;;;;;;4.22;2.88;;;11.80;99.90;;;;;;5012706;28;20025;-49
2023/10/04 00:31:36;;;;;;;3.33;2.63;;;11.80;99.90;;;;;;5012141;28;20473;-48
2023/10/04 00:34:03;;;;;;;5.70;3.00;;;11.80;99.90;;;;;;5012882;28;20045;-49
2023/10/04 00:36:29;;;;;;;7.57;2.60;;;11.80;99.90;;;;;;5012422;28;20018;-51
2023/10/04 00:38:55;;;;;;;3.25;2.67;;;11.80;99.90;;;;;;5012521;28;20026;-46
2023/10/04 00:41:21;;;;;;;6.53;3.40;;;11.80;99.90;;;;;;5012262;28;20026;-48
2023/10/04 00:43:49;;;;;;;10.45;2.85;;;11.80;99.90;;;;;;5012331;28;20025;-46
2023/10/04 00:46:21;;;;;;;4.70;2.90;;;11.80;99.90;;;;;;5012118;28;20267;-47
2023/10/04 00:48:49;;;;;;;8.88;3.35;;;11.80;99.90;;;;;;5012300;28;20058;-46
2023/10/04 00:51:16;;;;;;;5.03;2.78;;;11.80;99.90;;;;;;5012729;28;20069;-47
2023/10/04 00:53:43;;;;;;;5.03;2.80;;;11.90;99.90;;;;;;5012025;28;20026;-45
2023/10/04 00:56:10;;;;;;;5.53;3.28;;;11.80;99.90;;;;;;5010823;28;20076;-47
2023/10/04 00:58:36;;;;;;;2.95;2.30;;;11.80;99.90;;;;;;5012304;28;20099;-47
2023/10/04 01:01:04;;;;;;;4.03;2.38;;;11.70;99.90;;;;;;5012216;28;20118;-46
2023/10/04 01:03:32;;;;;;;4.82;2.88;;;11.80;99.90;;;;;;5011784;28;20041;-47
2023/10/04 01:06:00;;;;;;;6.22;3.10;;;11.80;99.90;;;;;;5012132;28;20022;-47
2023/10/04 01:08:25;;;;;;;10.55;3.05;;;11.80;99.90;;;;;;5012322;28;20034;-49
2023/10/04 01:10:54;;;;;;;7.72;3.17;;;11.80;99.90;;;;;;5011792;28;20535;-47
2023/10/04 01:13:26;;;;;;;4.78;2.72;;;11.70;99.90;;;;;;5012006;28;20018;-48
2023/10/04 01:15:55;;;;;;;6.85;2.67;;;11.70;99.90;;;;;;5011911;28;20026;-50
2023/10/04 01:18:22;;;;;;;8.57;3.40;;;11.70;99.90;;;;;;5012213;28;20017;-53
2023/10/04 01:20:48;;;;;;;3.78;3.03;;;11.70;99.90;;;;;;5012045;28;20064;-48
2023/10/04 01:23:14;;;;;;;10.43;3.90;;;11.70;99.90;;;;;;5011833;28;20022;-45
2023/10/04 01:25:41;;;;;;;5.57;3.05;;;11.70;99.90;;;;;;5010477;28;20105;-47
2023/10/04 01:28:12;;;;;;;5.40;3.17;;;11.70;99.90;;;;;;5011811;28;20026;-49
2023/10/04 01:30:42;;;;;;;9.48;3.15;;;11.60;99.90;;;;;;5011859;28;20026;-45
2023/10/04 01:33:15;;;;;;;3.22;2.42;;;11.60;99.90;;;;;;5011656;28;20382;-47
2023/10/04 01:35:42;;;;;;;4.97;2.90;;;11.70;99.90;;;;;;5011348;28;20697;-45
2023/10/04 01:38:08;;;;;;;6.63;2.70;;;11.60;99.90;;;;;;5011870;28;20026;-47
2023/10/04 01:40:35;;;;;;;7.40;2.75;;;11.70;99.90;;;;;;5011745;28;20110;-45
2023/10/04 01:43:14;;;;;;;3.80;2.90;;;11.60;99.90;;;;;;5011595;28;20030;-48
2023/10/04 01:45:40;;;;;;;7.13;3.25;;;11.60;99.90;;;;;;5011693;28;20030;-45
2023/10/04 01:48:09;;;;;;;4.32;3.00;;;11.60;99.90;;;;;;5010652;28;20049;-47
2023/10/04 01:50:34;;;;;;;7.43;3.38;;;11.60;99.90;;;;;;5011621;28;20073;-46
2023/10/04 01:53:01;;;;;;;6.07;3.03;;;11.60;99.90;;;;;;5011932;28;20022;-46
2023/10/04 01:55:26;;;;;;;6.25;2.75;;;11.60;99.90;;;;;;5012026;28;20390;-48
2023/10/04 01:57:52;;;;;;;6.90;3.05;;;11.60;99.90;;;;;;5012059;28;20018;-48
2023/10/04 02:00:19;;;;;;;5.43;2.97;;;11.60;99.90;;;;;;5014653;28;20022;-49
2023/10/04 02:02:46;;;;;;;7.05;3.47;;;11.60;99.90;;;;;;5014416;28;20100;-53
2023/10/04 02:05:16;;;;;;;5.28;2.65;;;11.60;99.90;;;;;;5015657;28;20018;-47
2023/10/04 02:07:45;;;;;;;7.80;3.45;;;11.60;99.90;;;;;;5015632;28;20018;-45
2023/10/04 02:10:14;;;;;;;5.50;2.65;;;11.70;99.90;;;;;;5015127;28;20084;-46
2023/10/04 02:12:42;;;;;;;8.82;3.00;;;11.60;99.90;;;;;;5015538;28;20029;-46
2023/10/04 02:15:13;;;;;;;5.28;2.38;;;11.70;99.90;;;;;;5015196;28;20072;-46
2023/10/04 02:17:38;;;;;;;12.13;3.55;;;11.70;99.90;;;;;;5015504;28;20040;-45
2023/10/04 02:20:09;;;;;;;6.57;2.78;;;11.60;99.90;;;;;;5015461;28;20485;-45
2023/10/04 02:22:34;;;;;;;6.95;2.85;;;11.70;99.90;;;;;;5015184;28;20018;-45
2023/10/04 02:25:00;;;;;;;6.72;3.00;;;11.60;99.90;;;;;;5014339;28;20026;-47
2023/10/04 02:27:27;;;;;;;6.78;2.67;;;11.60;99.90;;;;;;5015034;28;20044;-45
2023/10/04 02:29:53;;;;;;;5.78;3.00;;;11.60;99.90;;;;;;5014701;28;20030;-46
2023/10/04 02:32:20;;;;;;;4.72;2.80;;;11.70;99.90;;;;;;5014584;28;20018;-45
2023/10/04 02:34:46;;;;;;;4.85;2.67;;;11.70;99.90;;;;;;5014649;28;20272;-51
2023/10/04 02:37:12;;;;;;;6.25;2.75;;;11.60;99.90;;;;;;5015528;28;20105;-47
2023/10/04 02:39:37;;;;;;;6.85;3.05;;;11.60;99.90;;;;;;5015337;28;20030;-46
2023/10/04 02:42:09;;;;;;;12.80;3.08;;;11.60;99.90;;;;;;5014772;28;20481;-48
2023/10/04 02:44:36;;;;;;;6.95;3.15;;;11.60;99.90;;;;;;5014482;28;20036;-51
2023/10/04 02:47:06;;;;;;;4.80;2.72;;;11.60;99.90;;;;;;5014075;28;20029;-49
2023/10/04 02:49:34;;;;;;;7.95;2.63;;;11.60;99.90;;;;;;5014183;28;20502;-48
2023/10/04 02:52:00;;;;;;;2.97;2.10;;;11.60;99.90;;;;;;5014668;28;20037;-46
2023/10/04 02:54:27;;;;;;;8.00;3.05;;;11.60;99.90;;;;;;5014094;28;20026;-47
2023/10/04 02:56:53;;;;;;;6.80;2.83;;;11.50;99.90;;;;;;5014329;28;20109;-48
2023/10/04 02:59:19;;;;;;;7.68;4.10;;;11.50;99.90;;;;;;5013851;28;20164;-48
2023/10/04 03:01:44;;;;;;;12.48;3.72;;;11.40;99.90;;;;;;5014219;28;20045;-48
2023/10/04 03:04:11;;;;;;;3.00;2.70;;;11.50;99.90;;;;;;5014120;28;20081;-47
2023/10/04 03:06:37;;;;;;;7.95;3.28;;;11.40;99.90;;;;;;5013864;28;20022;-47
2023/10/04 03:09:05;;;;;;;6.13;3.30;;;11.40;99.90;;;;;;5014099;28;20393;-47
2023/10/04 03:11:31;;;;;;;9.50;3.28;;;11.50;99.90;;;;;;5013505;28;20022;-46
2023/10/04 03:13:59;;;;;;;5.45;3.28;;;11.40;99.90;;;;;;5014040;28;20024;-48
2023/10/04 03:16:25;;;;;;;3.95;3.10;;;11.40;99.90;;;;;;5013908;28;20022;-46
2023/10/04 03:18:51;;;;;;;8.15;4.25;;;11.40;99.90;;;;;;5014063;28;20488;-47
2023/10/04 03:21:26;;;;;;;8.30;2.95;;;11.30;99.90;;;;;;5013562;28;20308;-48
2023/10/04 03:23:54;;;;;;;4.28;2.95;;;11.40;99.90;;;;;;5013853;28;20551;-49
2023/10/04 03:26:20;;;;;;;7.07;3.13;;;11.40;99.90;;;;;;5013949;28;20034;-46
2023/10/04 03:28:45;;;;;;;6.53;3.17;;;11.40;99.90;;;;;;5014245;28;20088;-46
2023/10/04 03:31:14;;;;;;;6.60;2.72;;;11.30;99.90;;;;;;5013945;28;20038;-46
2023/10/04 03:33:40;;;;;;;8.23;2.50;;;11.30;99.90;;;;;;5012468;28;20061;-47
2023/10/04 03:36:06;;;;;;;7.57;3.08;;;11.30;99.90;;;;;;5013568;28;20072;-48
2023/10/04 03:38:35;;;;;;;8.30;3.00;;;11.30;99.90;;;;;;5014001;28;20389;-48
2023/10/04 03:41:03;;;;;;;9.20;3.00;;;11.30;99.90;;;;;;5013821;28;20022;-46
2023/10/04 03:43:30;;;;;;;6.72;3.40;;;11.30;99.90;;;;;;5014416;28;20030;-49
2023/10/04 03:45:55;;;;;;;6.85;2.67;;;11.40;99.90;;;;;;5013715;28;20022;-48
2023/10/04 03:48:23;;;;;;;9.98;2.55;;;11.30;99.90;;;;;;5014024;28;20153;-49
2023/10/04 03:50:51;;;;;;;6.38;2.92;;;11.40;99.90;;;;;;5013533;28;20030;-46
2023/10/04 03:53:21;;;;;;;7.03;2.80;;;11.30;99.90;;;;;;5012053;28;20515;-49
2023/10/04 03:55:47;;;;;;;10.82;3.28;;;11.40;99.90;;;;;;5013894;28;20036;-45
2023/10/04 03:58:15;;;;;;;9.93;3.17;;;11.40;99.90;;;;;;5012408;28;20112;-47
2023/10/04 04:00:41;;;;;;;8.10;2.25;;;11.40;99.90;;;;;;5013482;28;20104;-46
2023/10/04 04:03:08;;;;;;;8.63;3.05;;;11.40;99.90;;;;;;5013489;28;20030;-50
2023/10/04 04:05:39;;;;;;;4.45;2.28;;;11.50;99.90;;;;;;5013283;28;20401;-46
2023/10/04 04:08:05;;;;;;;4.82;2.33;;;11.50;99.90;;;;;;5013846;28;20037;-47
2023/10/04 04:10:31;;;;;;;7.38;2.85;;;11.50;99.90;;;;;;5012177;28;20030;-47
2023/10/04 04:13:01;;;;;;;7.20;2.33;;;11.50;99.90;;;;;;5011938;28;20393;-46
2023/10/04 04:15:27;;;;;;;6.72;2.33;;;11.60;99.90;;;;;;5013153;28;20037;-47
2023/10/04 04:17:54;;;;;;;7.85;2.85;;;11.50;99.90;;;;;;5013131;28;20029;-47
2023/10/04 04:20:19;;;;;;;5.68;2.83;;;11.50;99.90;;;;;;5013550;28;20501;-46
2023/10/04 04:22:50;;;;;;;6.32;2.78;;;11.40;99.90;;;;;;5012863;28;20030;-46
2023/10/04 04:25:19;;;;;;;9.95;2.60;;;11.40;99.90;;;;;;5011185;28;20030;-46
2023/10/04 04:27:46;;;;;;;6.65;3.00;;;11.30;99.90;;;;;;5012956;28;20022;-47
2023/10/04 04:30:16;;;;;;;7.68;2.88;;;11.30;99.90;;;;;;5012991;28;20033;-47
2023/10/04 04:32:47;;;;;;;5.70;2.33;;;11.30;99.90;;;;;;5013032;28;20025;-47
2023/10/04 04:35:22;;;;;;;6.90;2.95;;;11.20;99.90;;;;;;5012734;28;20069;-48
2023/10/04 04:37:48;;;;;;;7.05;2.70;;;11.20;99.90;;;;;;5012732;28;20026;-46
2023/10/04 04:40:20;;;;;;;9.15;3.08;;;11.20;99.90;;;;;;5012812;28;20024;-47
2023/10/04 04:42:47;;;;;;;7.32;2.70;;;11.20;99.90;;;;;;5011359;28;20064;-46
2023/10/04 04:45:24;;;;;;;6.25;2.78;;;11.10;99.90;;;;;;5012330;28;20018;-46
2023/10/04 04:47:50;;;;;;;8.38;2.60;;;11.20;99.90;;;;;;5012459;28;20026;-46
2023/10/04 04:50:16;;;;;;;9.43;2.47;;;11.20;99.90;;;;;;5012472;28;20049;-47
2023/10/04 04:52:42;;;;;;;6.57;3.22;;;11.20;99.90;;;;;;5012393;28;20300;-47
2023/10/04 04:55:09;;;;;;;7.00;3.13;;;11.20;99.90;;;;;;5012176;28;20034;-49
2023/10/04 04:57:36;;;;;;;6.90;4.03;;;11.20;99.90;;;;;;5011089;28;20112;-47
2023/10/04 05:00:19;;;;;;;9.55;2.90;;;11.20;99.90;;;;;;5012113;28;20121;-48
2023/10/04 05:02:45;;;;;;;12.65;3.28;;;11.10;99.90;;;;;;5012150;28;20533;-47
2023/10/04 05:05:11;;;;;;;5.82;3.42;;;11.10;99.90;;;;;;5012378;28;20054;-52
2023/10/04 05:07:37;;;;;;;6.78;3.85;;;11.10;99.90;;;;;;5012089;28;20018;-47
2023/10/04 05:10:03;;;;;;;4.97;3.40;;;11.00;99.90;;;;;;5012307;28;20026;-47
2023/10/04 05:12:30;;;;;;;6.85;3.50;;;10.90;99.90;;;;;;5012016;28;20528;-47
2023/10/04 05:14:56;;;;;;;6.45;3.78;;;10.90;99.90;;;;;;5011738;28;20029;-47
2023/10/04 05:17:21;;;;;;;7.60;4.05;;;10.90;99.90;;;;;;5012225;28;20018;-48
2023/10/04 05:19:47;;;;;;;5.93;4.70;;;10.70;99.90;;;;;;5011185;28;20393;-47
2023/10/04 05:22:14;;;;;;;9.45;3.40;;;10.70;99.90;;;;;;5012272;28;20034;-51
2023/10/04 05:24:40;;;;;;;10.55;4.35;;;10.60;99.90;;;;;;5011931;28;20030;-46
2023/10/04 05:27:06;;;;;;;7.60;4.18;;;10.50;99.90;;;;;;5012233;28;20030;-49
2023/10/04 05:29:32;;;;;;;10.05;5.32;;;10.50;99.90;;;;;;5012044;28;20025;-46
2023/10/04 05:31:58;;;;;;;7.60;3.72;;;10.50;99.90;;;;;;5012303;28;20034;-48
2023/10/04 05:34:24;;;;;;;7.25;4.57;;;10.50;99.90;;;;;;5015678;28;20489;-46
2023/10/04 05:36:50;;;;;;;6.95;4.22;;;10.50;99.90;;;;;;5018548;28;20034;-47
2023/10/04 05:39:16;;;;;;;8.65;4.30;;;10.60;99.90;;;;;;5018832;28;20026;-50
2023/10/04 05:41:41;;;;;;;11.73;4.85;;;10.60;99.90;;;;;;5018346;28;20396;-46
2023/10/04 05:44:08;;;;;;;10.65;4.70;;;10.60;99.90;;;;;;5018281;28;20054;-46
2023/10/04 05:46:34;;;;;;;9.30;4.03;;;10.50;99.90;;;;;;5017106;28;20393;-46
2023/10/04 05:48:59;;;;;;;10.10;4.38;;;10.50;99.90;;;;;;5017940;28;20022;-47
2023/10/04 05:51:26;;;;;;;7.88;4.72;;;10.50;99.90;;;;;;5018026;28;20038;-48
2023/10/04 05:53:52;;;;;;;9.32;4.50;;;10.50;99.90;;;;;;5017111;28;20030;-51
2023/10/04 05:56:24;;;;;;;6.65;4.60;;;10.50;99.90;;;;;;5018103;28;20025;-46
2023/10/04 05:58:49;;;;;;;10.20;5.22;;;10.50;99.90;;;;;;5018218;28;20029;-48
2023/10/04 06:01:19;;;;;;;6.22;4.43;;;10.60;99.90;;;;;;5018278;28;20157;-48
2023/10/04 06:03:44;;;;;;;8.68;4.25;;;10.60;99.90;;;;;;5018283;28;20025;-46
2023/10/04 06:06:10;;;;;;;6.53;4.43;;;10.60;99.90;;;;;;5018607;28;20030;-48
2023/10/04 06:08:36;;;;;;;13.13;5.25;;;10.70;99.90;;;;;;5018277;28;20030;-46
2023/10/04 06:11:02;;;;;;;12.77;4.97;;;10.70;99.90;;;;;;5019017;28;20062;-49
2023/10/04 06:13:28;;;;;;;5.93;3.70;;;10.70;99.90;;;;;;5018926;28;20018;-48
2023/10/04 06:15:54;;;;;;;12.70;4.45;;;10.70;99.90;;;;;;5019232;28;20087;-44
2023/10/04 06:18:22;;;;;;;9.48;4.57;;;10.70;99.90;;;;;;5019131;28;20026;-48
2023/10/04 06:20:49;;;;;;;9.50;4.75;;;10.80;99.90;;;;;;5019093;28;20114;-47
2023/10/04 06:23:17;;;;;;;7.40;4.53;;;10.90;99.90;;;;;;5017875;28;20080;-47
2023/10/04 06:25:44;;;;;;;7.88;3.55;;;10.90;99.90;;;;;;5018687;28;20076;-46
2023/10/04 06:28:11;;;;;;;6.35;3.88;;;11.00;99.90;;;;;;5016987;28;20029;-46
2023/10/04 06:30:37;;;;;;;6.45;4.00;;;11.00;99.90;;;;;;5017967;28;20497;-50
2023/10/04 06:33:05;;;;;;;7.35;3.92;;;11.20;99.90;;;;;;5018018;28;20105;-46
2023/10/04 06:35:32;;;;;;;8.23;3.90;;;11.40;99.90;;;;;;5017388;28;20028;-49
2023/10/04 06:37:59;;;;;;;11.90;4.38;;;12.00;99.90;;;;;;5017760;28;20101;-46
2023/10/04 06:40:25;;;;;;;11.75;4.38;;;11.90;99.90;;;;;;5018054;28;20110;-46
2023/10/04 06:42:53;;;;;;;7.00;3.65;;;12.30;99.90;;;;;;5017650;28;20041;-47
2023/10/04 06:45:20;;;;;;;7.32;3.15;;;12.70;99.90;;;;;;5015238;28;20033;-46
2023/10/04 06:47:47;;;;;;;10.20;3.53;;;13.10;99.90;;;;;;5014616;28;20044;-47
2023/10/04 06:50:18;;;;;;;8.40;3.58;;;13.80;99.90;;;;;;5035611;23;20740;-47
2023/10/04 06:52:47;;;;;;;13.18;4.05;;;14.50;99.90;;;;;;5014416;28;20048;-49
2023/10/04 06:55:13;;;;;;;5.75;2.78;;;15.30;99.90;;;;;;5014278;28;20024;-46
2023/10/04 06:57:39;;;;;;;9.85;3.90;;;16.00;99.90;;;;;;5015036;28;20036;-45
2023/10/04 07:00:13;;;;;;;8.55;3.70;;;16.50;99.90;;;;;;5014650;28;20034;-46
2023/10/04 07:02:58;;;;;;;8.07;4.32;;;17.00;99.90;;;;;;5014727;28;20022;-46
2023/10/04 07:05:29;;;;;;;7.20;3.38;;;17.50;99.90;;;;;;5015066;28;20037;-49
2023/10/04 07:07:58;;;;;;;5.45;3.22;;;18.00;99.90;;;;;;5015533;28;20022;-46
2023/10/04 07:10:26;;;;;;;10.07;3.90;;;18.30;99.90;;;;;;5013678;28;20026;-46
2023/10/04 07:12:52;;;;;;;4.47;3.00;;;18.30;99.90;;;;;;5014856;28;20048;-46
2023/10/04 07:15:19;;;;;;;9.10;3.25;;;18.50;99.90;;;;;;5015931;28;20028;-50
2023/10/04 07:17:47;;;;;;;4.82;3.67;;;18.70;99.90;;;;;;5016027;28;20069;-46
2023/10/04 07:20:16;;;;;;;9.15;3.65;;;19.00;99.90;;;;;;5015010;28;20022;-46
2023/10/04 07:22:43;;;;;;;7.97;3.40;;;19.40;99.90;;;;;;5014069;28;20022;-46
2023/10/04 07:25:12;;;;;;;13.02;3.72;;;19.80;99.90;;;;;;5014466;28;20018;-46
2023/10/04 07:27:38;;;;;;;6.97;3.58;;;20.00;99.90;;;;;;5014520;28;20098;-46
2023/10/04 07:30:04;;;;;;;7.47;4.35;;;19.60;99.90;;;;;;5013942;28;20025;-50
2023/10/04 07:32:30;;;;;;;5.88;3.88;;;18.50;99.90;;;;;;5013874;28;20026;-45
2023/10/04 07:34:55;;;;;;;7.53;3.55;;;17.30;99.90;;;;;;5013390;28;20390;-46
2023/10/04 07:37:21;;;;;;;10.98;4.38;;;16.30;99.90;;;;;;5013730;28;20022;-46
2023/10/04 07:39:47;;;;;;;11.40;4.07;;;15.50;99.90;;;;;;5013654;28;20029;-47
2023/10/04 07:42:12;;;;;;;9.77;3.67;;;14.90;99.90;;;;;;5013334;28;20401;-49
2023/10/04 07:44:38;;;;;;;12.77;4.18;;;14.60;99.90;;;;;;5013206;28;20017;-46
2023/10/04 07:47:04;;;;;;;6.80;3.72;;;14.30;99.90;;;;;;5012187;28;20050;-47
2023/10/04 07:49:31;;;;;;;8.23;4.00;;;14.10;99.90;;;;;;5013539;28;20026;-48
2023/10/04 07:51:57;;;;;;;18.48;5.70;;;13.90;99.90;;;;;;5013247;28;20030;-46
2023/10/04 07:54:23;;;;;;;10.65;4.32;;;13.80;99.90;;;;;;5013203;28;20028;-45
2023/10/04 07:56:51;;;;;;;6.65;4.28;;;13.70;99.90;;;;;;5011951;28;20034;-44
2023/10/04 07:59:17;;;;;;;11.18;4.78;;;13.60;99.90;;;;;;5013486;28;20028;-49
2023/10/04 08:01:43;;;;;;;6.80;3.90;;;13.60;99.90;;;;;;5013528;28;20022;-46
2023/10/04 08:04:11;;;;;;;9.38;3.58;;;13.60;99.90;;;;;;5013267;28;20037;-45
2023/10/04 08:06:37;;;;;;;9.60;4.13;;;13.60;99.90;;;;;;5013114;28;20022;-48
2023/10/04 08:09:05;;;;;;;7.50;4.15;;;13.70;99.90;;;;;;5013343;28;20026;-46
2023/10/04 08:11:33;;;;;;;11.50;4.65;;;13.60;99.90;;;;;;5013320;28;20025;-50
2023/10/04 08:13:59;;;;;;;10.88;4.13;;;13.70;99.90;;;;;;5013250;28;20072;-46
2023/10/04 08:16:25;;;;;;;15.50;4.20;;;13.80;99.90;;;;;;5012804;28;20026;-50
2023/10/04 08:18:50;;;;;;;9.55;4.15;;;13.90;99.90;;;;;;5013092;28;20393;-47
2023/10/04 08:21:16;;;;;;;8.88;3.78;;;14.00;99.90;;;;;;5012790;28;20036;-45
2023/10/04 08:23:42;;;;;;;6.88;3.38;;;14.10;99.90;;;;;;5012695;28;20076;-46
2023/10/04 08:26:14;;;;;;;9.07;4.57;;;14.10;99.90;;;;;;5012672;28;20553;-47
2023/10/04 08:28:41;;;;;;;5.13;3.42;;;14.20;99.90;;;;;;5012751;28;20107;-46
2023/10/04 08:31:08;;;;;;;10.05;3.97;;;14.20;99.90;;;;;;5012433;28;20030;-46
2023/10/04 08:33:34;;;;;;;13.80;4.57;;;14.30;99.90;;;;;;5012605;28;20025;-47
2023/10/04 08:36:03;;;;;;;7.80;3.03;;;14.40;99.90;;;;;;5012565;28;20088;-47
2023/10/04 08:38:29;;;;;;;7.05;3.15;;;14.40;99.90;;;;;;5012731;28;20025;-51
2023/10/04 08:40:54;;;;;;;5.57;2.83;;;14.50;99.90;;;;;;5012345;28;20030;-46
2023/10/04 08:43:20;;;;;;;8.88;2.85;;;14.60;99.90;;;;;;5012524;28;20025;-48
2023/10/04 08:45:46;;;;;;;12.05;3.42;;;14.60;99.90;;;;;;5012171;28;20026;-47
2023/10/04 08:48:12;;;;;;;7.82;3.03;;;14.70;99.90;;;;;;5012587;28;20112;-48
2023/10/04 08:50:54;;;;;;;10.75;2.50;;;14.80;99.90;;;;;;5012154;28;20121;-47
2023/10/04 08:53:45;;;;;;;10.98;3.10;;;14.80;99.90;;;;;;5012321;28;20097;-46
2023/10/04 08:56:13;;;;;;;7.97;2.42;;;14.90;99.90;;;;;;5012220;28;20026;-50
2023/10/04 08:58:43;;;;;;;6.22;3.65;;;15.00;99.90;;;;;;5012283;28;20029;-47
2023/10/04 09:01:11;;;;;;;7.03;2.20;;;15.20;99.90;;;;;;5010800;28;20030;-46
2023/10/04 09:03:39;;;;;;;6.15;2.65;;;16.10;99.90;;;;;;5012018;28;20083;-44
2023/10/04 09:06:05;;;;;;;7.68;2.55;;;17.30;99.90;;;;;;5011836;28;20034;-49
2023/10/04 09:08:31;;;;;;;8.52;2.67;;;18.40;99.90;;;;;;5010466;28;20110;-48
2023/10/04 09:10:58;;;;;;;5.82;2.03;;;19.50;99.90;;;;;;5010692;28;20029;-45
2023/10/04 09:13:24;;;;;;;5.75;2.10;;;21.00;99.90;;;;;;5010704;28;20030;-47
2023/10/04 09:15:50;;;;;;;7.47;2.38;;;21.90;99.90;;;;;;5010603;28;20037;-48
2023/10/04 09:18:29;;;;;;;7.68;2.60;;;22.60;99.90;;;;;;5012264;28;20026;-49
2023/10/04 09:20:55;;;;;;;4.43;1.85;;;23.00;99.90;;;;;;5012032;28;20026;-46
2023/10/04 09:23:22;;;;;;;6.65;1.83;;;23.40;98.60;;;;;;5011767;28;20030;-50
2023/10/04 09:25:48;;;;;;;5.00;1.70;;;23.40;99.00;;;;;;5011818;28;20030;-47
2023/10/04 09:28:13;;;;;;;6.22;1.83;;;23.60;97.90;;;;;;5011881;28;20401;-45
2023/10/04 09:30:39;;;;;;;9.27;1.83;;;23.90;98.20;;;;;;5011899;28;20026;-46
2023/10/04 09:33:21;;;;;;;7.75;2.22;;;24.70;97.40;;;;;;5011738;28;20505;-49
2023/10/04 09:35:47;;;;;;;5.45;1.83;;;24.70;96.20;;;;;;5011727;28;20026;-50
2023/10/04 09:38:18;;;;;;;6.45;2.50;;;24.20;96.50;;;;;;5011910;28;20481;-47
2023/10/04 09:40:55;;;;;;;7.70;1.83;;;23.90;97.20;;;;;;5011442;28;20022;-49
2023/10/04 09:43:32;;;;;;;3.70;1.95;;;23.40;97.90;;;;;;5011590;28;20021;-46
2023/10/04 09:45:58;;;;;;;5.40;2.03;;;22.60;98.00;;;;;;5011425;28;20398;-50
2023/10/04 09:48:25;;;;;;;4.47;1.60;;;22.30;98.90;;;;;;5011562;28;20025;-48
2023/10/04 09:51:01;;;;;;;4.38;1.80;;;22.30;98.90;;;;;;5011222;28;20062;-47
2023/10/04 09:53:28;;;;;;;6.60;2.05;;;22.40;98.90;;;;;;5011625;28;20032;-46
2023/10/04 09:55:57;;;;;;;11.90;1.85;;;22.30;98.60;;;;;;5011410;28;20022;-48
2023/10/04 09:58:26;;;;;;;4.43;1.95;;;21.50;99.30;;;;;;5011728;28;20482;-50
2023/10/04 10:00:55;;;;;;;4.45;1.77;;;20.70;99.90;;;;;;5011540;28;20041;-50
2023/10/04 10:03:30;;;;;;;7.40;2.65;;;20.00;99.90;;;;;;5010184;28;20026;-49
2023/10/04 10:05:57;;;;;;;5.28;1.63;;;19.60;99.90;;;;;;5011276;28;20022;-48
2023/10/04 10:08:26;;;;;;;7.63;1.88;;;19.40;99.90;;;;;;5011542;28;20544;-49
2023/10/04 10:10:52;;;;;;;5.38;2.10;;;19.20;99.90;;;;;;5011376;28;20034;-50
2023/10/04 10:13:20;;;;;;;7.95;2.47;;;19.00;99.90;;;;;;5011385;28;20502;-51
2023/10/04 10:15:48;;;;;;;5.35;2.15;;;18.90;99.90;;;;;;5010924;28;20018;-53
2023/10/04 10:18:15;;;;;;;12.15;2.33;;;18.90;99.90;;;;;;5009905;28;20022;-48
2023/10/04 10:20:42;;;;;;;7.40;2.10;;;19.30;99.90;;;;;;5013261;28;20047;-48
2023/10/04 10:23:10;;;;;;;6.28;3.38;;;19.50;99.90;;;;;;5015014;28;20106;-50
2023/10/04 10:25:37;;;;;;;7.55;3.03;;;19.80;99.90;;;;;;5013476;28;20033;-47
2023/10/04 10:28:04;;;;;;;4.85;2.20;;;19.70;99.90;;;;;;5014950;28;20511;-48
2023/10/04 10:30:33;;;;;;;5.55;2.28;;;19.30;99.90;;;;;;5014999;28;20101;-52
2023/10/04 10:33:00;;;;;;;8.73;2.20;;;18.90;99.90;;;;;;5013569;28;20084;-46
2023/10/04 10:35:58;;;;;;;7.07;2.13;;;18.80;99.90;;;;;;5014721;28;20029;-45
2023/10/04 10:38:30;;;;;;;8.25;3.15;;;18.60;99.90;;;;;;5014747;28;20389;-48
2023/10/04 10:40:56;;;;;;;7.38;2.25;;;18.60;99.90;;;;;;5013652;28;20030;-49
2023/10/04 10:43:22;;;;;;;8.85;2.88;;;18.60;99.90;;;;;;5014605;28;20048;-47
2023/10/04 10:45:47;;;;;;;4.68;2.75;;;18.50;99.90;;;;;;5014036;28;20619;-49
2023/10/04 10:48:13;;;;;;;9.07;3.17;;;18.40;99.90;;;;;;5013240;28;20099;-46
2023/10/04 10:50:41;;;;;;;6.78;2.33;;;18.20;99.90;;;;;;5011131;28;20056;-50
2023/10/04 10:53:10;;;;;;;11.77;2.58;;;18.20;99.90;;;;;;5012315;28;20378;-48
2023/10/04 10:55:40;;;;;;;26.83;17.48;;;18.20;99.90;;;;;;5013522;28;20029;-50
2023/10/04 10:58:07;;;;;;;32.78;22.65;;;18.10;99.90;;;;;;5013951;28;20029;-46
2023/10/04 11:00:36;;;;;;;36.38;23.52;;;18.00;99.90;;;;;;5014147;28;20018;-48
2023/10/04 11:03:05;;;;;;;9.93;4.63;;;18.00;99.90;;;;;;5013928;28;20509;-48
2023/10/04 11:05:31;;;;;;;6.50;2.92;;;18.00;99.90;;;;;;5014126;28;20022;-45
2023/10/04 11:07:57;;;;;;;6.05;2.88;;;18.00;99.90;;;;;;5014504;28;20105;-49
2023/10/04 11:10:25;;;;;;;5.22;2.80;;;18.10;99.90;;;;;;5014149;28;20045;-45
2023/10/04 11:12:55;;;;;;;7.63;3.78;;;18.20;99.90;;;;;;5014288;28;20022;-47
2023/10/04 11:15:23;;;;;;;9.02;3.33;;;18.30;99.90;;;;;;5014176;28;20025;-47
2023/10/04 11:17:50;;;;;;;10.40;3.85;;;18.30;99.90;;;;;;5014171;28;20025;-49
2023/10/04 11:20:21;;;;;;;16.13;4.45;;;18.30;99.90;;;;;;5014322;28;20026;-46
2023/10/04 11:22:49;;;;;;;8.18;3.30;;;18.40;99.90;;;;;;5012656;28;20036;-47
2023/10/04 11:25:15;;;;;;;7.78;3.42;;;18.40;99.90;;;;;;5013318;28;20543;-49
2023/10/04 11:27:43;;;;;;;9.40;3.15;;;18.40;99.90;;;;;;5014031;28;20556;-45
2023/10/04 11:30:10;;;;;;;6.90;3.22;;;18.60;99.90;;;;;;5013623;28;20040;-47
2023/10/04 11:32:41;;;;;;;8.98;3.72;;;18.40;99.90;;;;;;5013254;28;20105;-49
2023/10/04 11:35:11;;;;;;;13.48;3.30;;;18.30;99.90;;;;;;5013519;28;20029;-51
2023/10/04 11:37:49;;;;;;;11.43;3.53;;;18.20;99.90;;;;;;5013757;28;20033;-48
2023/10/04 11:40:17;;;;;;;8.30;3.65;;;18.30;99.90;;;;;;5013600;28;20040;-47
2023/10/04 11:42:43;;;;;;;7.40;3.38;;;18.20;99.90;;;;;;5012365;28;20038;-47
2023/10/04 11:45:23;;;;;;;7.15;3.38;;;18.20;99.90;;;;;;5013063;28;20034;-50
2023/10/04 11:48:03;;;;;;;11.95;3.85;;;18.20;99.90;;;;;;5013473;28;20041;-47
2023/10/04 11:50:48;;;;;;;10.43;3.40;;;18.20;99.90;;;;;;5013464;28;20112;-47
2023/10/04 11:53:27;;;;;;;;;;;18.10;99.90;;;;;;5013712;28;20025;-49
2023/10/04 11:56:06;;;;;;;7.10;3.22;;;18.20;99.90;;;;;;5013391;28;19913;-47
2023/10/04 11:58:45;;;;;;;9.23;4.45;;;18.20;99.90;;;;;;5013484;28;20022;-49
2023/10/04 12:01:14;;;;;;;10.32;3.70;;;18.20;99.90;;;;;;5011554;28;20030;-50
2023/10/04 12:03:40;;;;;;;7.55;3.25;;;18.30;99.90;;;;;;5013114;28;20053;-51
2023/10/04 12:06:06;;;;;;;8.88;3.13;;;18.20;99.90;;;;;;5013133;28;20044;-50
2023/10/04 12:08:32;;;;;;;9.52;3.20;;;18.20;99.90;;;;;;5011991;28;20029;-50
2023/10/04 12:11:01;;;;;;;7.85;3.53;;;18.30;99.90;;;;;;5013201;28;20146;-47
2023/10/04 12:13:27;;;;;;;8.77;3.40;;;18.40;99.90;;;;;;5013235;28;20033;-49
2023/10/04 12:15:54;;;;;;;28.90;16.65;;;18.40;99.90;;;;;;5012964;28;20026;-49
2023/10/04 12:18:19;;;;;;;11.73;5.68;;;18.30;99.90;;;;;;5013347;28;20026;-49
2023/10/04 12:20:45;;;;;;;9.02;4.07;;;18.20;99.90;;;;;;5012591;28;20445;-49
2023/10/04 12:23:11;;;;;;;8.82;3.25;;;18.20;99.90;;;;;;5011423;28;20022;-49
2023/10/04 12:25:38;;;;;;;10.63;3.17;;;18.10;99.90;;;;;;5011393;28;20029;-50
2023/10/04 12:28:07;;;;;;;8.00;3.25;;;18.10;99.90;;;;;;5012869;28;20370;-48
2023/10/04 12:30:33;;;;;;;10.32;3.10;;;18.10;99.90;;;;;;5013272;28;20161;-52
2023/10/04 12:32:59;;;;;;;6.47;3.47;;;18.20;99.90;;;;;;5011258;28;20500;-54
2023/10/04 12:35:25;;;;;;;5.40;3.25;;;18.20;99.90;;;;;;5012323;28;20493;-47
2023/10/04 12:37:51;;;;;;;7.80;3.10;;;18.30;99.90;;;;;;5012756;28;20082;-45
2023/10/04 12:40:17;;;;;;;9.30;3.92;;;18.10;99.90;;;;;;5012388;28;20025;-49
2023/10/04 12:42:45;;;;;;;5.78;3.33;;;18.10;99.90;;;;;;5011807;28;20492;-45
2023/10/04 12:45:11;;;;;;;9.90;4.15;;;18.10;99.90;;;;;;5010458;28;20505;-50
2023/10/04 12:47:36;;;;;;;7.53;3.67;;;18.20;99.90;;;;;;5011944;28;20160;-50
2023/10/04 12:50:03;;;;;;;7.93;3.95;;;18.30;99.90;;;;;;5011895;28;20030;-49